Time;durP1;ratioP1;P1;durP2;ratioP2;P2;SDS_P1;SDS_P2;PMS_P1;PMS_P2;Temp;Humidity;BMP_temperature;BMP_pressure;BME280_temperature;BME280_humidity;BME280_pressure;Samples;Min_cycle;Max_cycle;Signal;HPM_P1;HPM_P2
2022/01/22 00:00:08;;;;;;;18.15;8.85;;;1.10;94.10;;;;;;5091048;28;20557;-58
2022/01/22 00:02:36;;;;;;;15.23;9.35;;;1.00;94.10;;;;;;5092241;28;20597;-54
2022/01/22 00:05:04;;;;;;;16.92;9.10;;;1.00;94.20;;;;;;5092459;28;20204;-59
2022/01/22 00:07:31;;;;;;;15.75;9.20;;;1.00;94.10;;;;;;5092503;28;20212;-58
2022/01/22 00:10:03;;;;;;;18.33;9.88;;;1.00;94.20;;;;;;5092304;28;20204;-55
2022/01/22 00:12:44;;;;;;;21.65;10.82;;;1.00;94.30;;;;;;5092519;28;20204;-58
2022/01/22 00:15:13;;;;;;;23.58;10.20;;;1.00;94.50;;;;;;5090984;28;20206;-57
2022/01/22 00:17:41;;;;;;;15.40;8.73;;;1.00;94.40;;;;;;5092321;28;20264;-59
2022/01/22 00:20:10;;;;;;;17.48;9.88;;;1.20;94.40;;;;;;5092371;28;20204;-55
2022/01/22 00:22:37;;;;;;;14.90;8.32;;;1.20;93.80;;;;;;5092127;28;20234;-58
2022/01/22 00:25:08;;;;;;;19.00;9.95;;;1.20;93.70;;;;;;5092334;28;20234;-60
2022/01/22 00:27:36;;;;;;;14.10;7.82;;;1.20;93.80;;;;;;5093694;28;20674;-59
2022/01/22 00:30:04;;;;;;;15.95;9.02;;;1.40;93.80;;;;;;5094432;28;20204;-59
2022/01/22 00:32:31;;;;;;;16.20;8.48;;;1.40;93.20;;;;;;5095842;28;20299;-57
2022/01/22 00:34:59;;;;;;;17.45;9.73;;;1.40;93.00;;;;;;5095723;28;20200;-57
2022/01/22 00:37:26;;;;;;;16.67;8.60;;;1.50;92.90;;;;;;5095633;28;20204;-59
2022/01/22 00:39:53;;;;;;;16.50;8.88;;;1.50;92.40;;;;;;5095595;28;20681;-57
2022/01/22 00:42:22;;;;;;;11.05;7.07;;;1.40;92.60;;;;;;5095584;28;20263;-57
2022/01/22 00:44:51;;;;;;;16.73;8.48;;;1.40;93.00;;;;;;5094193;28;20227;-58
2022/01/22 00:47:18;;;;;;;11.98;7.75;;;1.50;93.20;;;;;;5095501;28;20306;-58
2022/01/22 00:49:46;;;;;;;17.85;8.65;;;1.60;93.00;;;;;;5095465;28;20210;-59
2022/01/22 00:52:14;;;;;;;14.95;7.60;;;1.70;92.90;;;;;;5095372;28;20681;-56
2022/01/22 00:54:41;;;;;;;14.30;7.78;;;1.80;92.60;;;;;;5095400;28;20739;-58
2022/01/22 00:57:08;;;;;;;11.35;7.75;;;1.90;92.30;;;;;;5095309;28;20206;-60
2022/01/22 00:59:35;;;;;;;14.48;6.75;;;1.90;91.90;;;;;;5093836;28;20214;-59
2022/01/22 01:02:03;;;;;;;11.95;6.75;;;2.00;91.70;;;;;;5094880;28;20234;-57
2022/01/22 01:04:33;;;;;;;11.60;6.80;;;2.00;91.50;;;;;;5095184;28;20204;-58
2022/01/22 01:07:00;;;;;;;14.07;7.13;;;1.90;91.30;;;;;;5095138;28;20299;-58
2022/01/22 01:09:28;;;;;;;9.07;5.93;;;1.90;91.40;;;;;;5095086;28;20204;-60
2022/01/22 01:11:59;;;;;;;10.80;6.90;;;1.90;91.50;;;;;;5094988;28;20295;-59
2022/01/22 01:14:32;;;;;;;10.43;6.47;;;1.90;91.70;;;;;;5093527;28;20290;-60
2022/01/22 01:17:10;;;;;;;10.70;6.47;;;1.80;91.60;;;;;;5094883;28;20211;-59
2022/01/22 01:33:30;;;;;;;9.88;5.82;;;2.10;91.80;;;;;;5094569;28;20686;-59
2022/01/22 01:35:57;;;;;;;9.07;6.40;;;2.10;91.50;;;;;;5094467;28;20204;-60
2022/01/22 01:38:25;;;;;;;9.52;6.13;;;2.20;91.40;;;;;;5094463;28;20208;-60
2022/01/22 01:41:01;;;;;;;10.50;6.88;;;2.10;90.70;;;;;;5094613;28;20282;-59
2022/01/22 01:43:33;;;;;;;12.40;7.00;;;2.00;90.90;;;;;;5094372;28;20261;-60
2022/01/22 01:46:00;;;;;;;11.27;7.10;;;1.90;91.50;;;;;;5093899;28;20201;-57
2022/01/22 01:48:31;;;;;;;12.43;6.97;;;2.00;91.70;;;;;;5094452;28;20251;-61
2022/01/22 01:50:59;;;;;;;13.20;7.00;;;2.10;91.70;;;;;;5094246;28;20204;-59
2022/01/22 01:53:44;;;;;;;8.45;5.88;;;2.10;91.20;;;;;;5094255;28;20240;-59
2022/01/22 01:58:55;;;;;;;13.23;7.10;;;2.30;90.80;;;;;;5092116;28;20196;-61
2022/01/22 02:01:22;;;;;;;11.13;7.15;;;2.30;90.30;;;;;;5093902;28;20228;-59
2022/01/22 02:03:49;;;;;;;11.05;6.20;;;2.30;90.20;;;;;;5093830;28;20250;-60
2022/01/22 02:06:16;;;;;;;10.45;6.18;;;2.30;90.50;;;;;;5094005;28;20196;-61
2022/01/22 02:08:43;;;;;;;9.40;6.90;;;2.30;90.30;;;;;;5093887;28;20291;-61
2022/01/22 02:11:11;;;;;;;11.93;6.50;;;2.30;90.30;;;;;;5093820;28;20220;-59
2022/01/22 02:13:57;;;;;;;12.25;7.45;;;2.40;90.40;;;;;;5092574;28;20689;-60
2022/01/22 02:24:59;;;;;;;9.98;7.05;;;2.80;88.60;;;;;;5093719;28;20291;-61
2022/01/22 02:27:25;;;;;;;12.40;7.35;;;2.70;88.60;;;;;;5093702;28;20751;-59
2022/01/22 02:29:52;;;;;;;8.55;6.30;;;2.60;88.60;;;;;;5092227;28;20291;-60
2022/01/22 02:32:48;;;;;;;14.07;7.00;;;2.60;89.10;;;;;;5093555;28;20210;-61
2022/01/22 02:35:22;;;;;;;12.30;6.32;;;2.60;88.80;;;;;;5093482;28;20196;-60
2022/01/22 02:37:56;;;;;;;8.00;6.20;;;2.60;88.90;;;;;;5093315;28;20204;-60
2022/01/22 02:40:26;;;;;;;9.88;6.13;;;2.50;89.10;;;;;;5093252;28;20663;-59
2022/01/22 02:42:53;;;;;;;10.30;6.80;;;2.50;89.20;;;;;;5093304;28;20305;-61
2022/01/22 02:45:23;;;;;;;11.57;7.28;;;2.50;89.70;;;;;;5091807;28;20246;-55
2022/01/22 02:47:50;;;;;;;10.50;6.60;;;2.60;89.60;;;;;;5093166;28;20762;-59
2022/01/22 02:50:19;;;;;;;12.40;6.85;;;2.70;89.60;;;;;;5092731;28;20222;-60
2022/01/22 02:52:45;;;;;;;12.23;7.43;;;2.70;88.80;;;;;;5092995;28;20316;-59
2022/01/22 02:55:15;;;;;;;12.55;6.65;;;2.70;88.90;;;;;;5091663;28;20204;-59
2022/01/22 02:57:43;;;;;;;9.43;7.03;;;2.80;88.60;;;;;;5072968;28;20209;-57
2022/01/22 03:00:13;;;;;;;14.00;6.90;;;2.70;88.50;;;;;;5071643;28;20209;-60
2022/01/22 03:02:40;;;;;;;12.35;6.88;;;2.80;88.60;;;;;;5072662;28;20236;-61
2022/01/22 03:05:08;;;;;;;10.25;6.50;;;2.80;88.50;;;;;;5072882;28;20201;-60
2022/01/22 03:07:36;;;;;;;12.48;6.32;;;2.80;88.80;;;;;;5072745;28;20283;-60
2022/01/22 03:10:04;;;;;;;14.05;6.75;;;2.80;88.40;;;;;;5072727;28;20250;-58
2022/01/22 03:13:08;;;;;;;14.02;6.90;;;2.80;88.10;;;;;;5072822;28;20621;-60
2022/01/22 03:15:53;;;;;;;11.25;6.20;;;2.70;88.10;;;;;;5071462;28;20282;-60
2022/01/22 03:18:33;;;;;;;15.57;7.47;;;2.60;88.90;;;;;;5072822;28;20207;-61
2022/01/22 03:21:08;;;;;;;11.77;7.10;;;2.80;88.90;;;;;;5072697;28;20254;-60
2022/01/22 03:29:09;;;;;;;11.90;7.18;;;3.10;87.70;;;;;;5091505;28;20199;-60
2022/01/22 03:31:37;;;;;;;10.48;7.57;;;2.90;87.00;;;;;;5092871;28;20235;-59
2022/01/22 03:34:03;;;;;;;15.50;7.00;;;2.80;87.40;;;;;;5092804;28;20294;-59
2022/01/22 03:36:33;;;;;;;16.60;7.90;;;2.70;87.90;;;;;;5092667;28;20251;-59
2022/01/22 03:39:01;;;;;;;9.55;6.43;;;2.80;88.10;;;;;;5092570;28;20257;-56
2022/01/22 03:41:28;;;;;;;11.68;7.22;;;2.90;88.20;;;;;;5092656;28;20196;-59
2022/01/22 03:43:55;;;;;;;15.48;7.60;;;2.90;87.70;;;;;;5091387;28;20232;-60
2022/01/22 03:46:23;;;;;;;11.10;7.25;;;2.80;87.90;;;;;;5092641;28;20230;-60
2022/01/22 03:48:50;;;;;;;15.00;7.82;;;2.80;87.90;;;;;;5092651;28;20195;-60
2022/01/22 03:51:17;;;;;;;12.00;7.50;;;2.80;87.80;;;;;;5092390;28;20207;-60
2022/01/22 03:53:44;;;;;;;12.27;7.18;;;2.90;87.70;;;;;;5092418;28;20295;-61
2022/01/22 03:56:12;;;;;;;16.05;7.90;;;2.90;87.60;;;;;;5092536;28;20207;-59
2022/01/22 03:58:41;;;;;;;10.73;8.10;;;2.80;87.40;;;;;;5091266;28;20200;-60
2022/01/22 04:03:58;;;;;;;13.80;7.70;;;2.80;87.70;;;;;;5061770;28;20263;-60
2022/01/22 04:07:00;;;;;;;10.95;7.38;;;2.80;88.00;;;;;;5096307;28;20203;-60
2022/01/22 04:09:26;;;;;;;16.17;8.70;;;2.60;88.00;;;;;;5095903;28;20204;-59
2022/01/22 04:11:56;;;;;;;12.77;8.00;;;2.60;88.40;;;;;;5096246;28;20750;-57
2022/01/22 04:14:28;;;;;;;16.20;8.18;;;2.60;88.40;;;;;;5094884;28;20203;-59
2022/01/22 04:17:05;;;;;;;12.02;8.32;;;2.40;88.80;;;;;;5096038;28;20693;-60
2022/01/22 04:25:02;;;;;;;12.77;7.78;;;2.60;88.30;;;;;;5095790;28;20239;-59
2022/01/22 04:27:29;;;;;;;12.02;8.27;;;2.60;88.40;;;;;;5096047;28;20227;-58
2022/01/22 04:29:59;;;;;;;12.73;8.40;;;2.60;88.30;;;;;;5094512;28;20265;-60
2022/01/22 04:32:27;;;;;;;13.00;7.50;;;2.70;88.60;;;;;;5095885;28;20207;-59
2022/01/22 04:34:56;;;;;;;11.77;7.22;;;2.70;88.00;;;;;;5095704;28;20195;-58
2022/01/22 04:37:24;;;;;;;12.32;7.60;;;2.60;88.50;;;;;;5095639;28;20200;-60
2022/01/22 04:39:52;;;;;;;11.98;8.77;;;2.70;88.20;;;;;;5095536;28;20210;-57
2022/01/22 04:42:20;;;;;;;14.13;8.27;;;2.70;88.10;;;;;;5095685;28;20206;-59
2022/01/22 04:44:55;;;;;;;13.57;7.90;;;2.50;88.20;;;;;;5094204;28;20558;-60
2022/01/22 04:47:42;;;;;;;15.32;8.60;;;2.40;88.80;;;;;;5095436;28;20202;-61
2022/01/22 04:55:39;;;;;;;14.02;8.07;;;2.60;88.40;;;;;;5095338;28;20223;-60
2022/01/22 04:58:07;;;;;;;13.43;8.02;;;2.60;88.20;;;;;;5095313;28;20560;-60
2022/01/22 05:00:37;;;;;;;12.10;8.10;;;2.70;87.80;;;;;;5093945;28;20207;-59
2022/01/22 05:03:05;;;;;;;10.98;7.30;;;2.80;88.00;;;;;;5094961;28;20232;-59
2022/01/22 05:05:34;;;;;;;12.07;7.75;;;2.90;87.50;;;;;;5095221;28;20655;-60
2022/01/22 05:08:00;;;;;;;15.35;7.43;;;3.10;87.50;;;;;;5095203;28;20227;-57
2022/01/22 05:10:27;;;;;;;11.70;8.45;;;3.10;86.40;;;;;;5094869;28;20290;-60
2022/01/22 05:12:54;;;;;;;12.50;7.70;;;3.30;86.30;;;;;;5094602;28;20200;-59
2022/01/22 05:15:22;;;;;;;11.27;7.30;;;3.10;85.70;;;;;;5093734;28;20203;-56
2022/01/22 05:17:49;;;;;;;16.75;8.00;;;3.20;85.80;;;;;;5094868;28;20659;-60
2022/01/22 05:20:21;;;;;;;11.27;8.38;;;3.40;85.50;;;;;;5095009;28;20324;-59
2022/01/22 05:22:58;;;;;;;13.05;7.90;;;3.40;85.30;;;;;;5094820;28;20712;-58
2022/01/22 05:25:31;;;;;;;14.95;8.00;;;3.30;84.60;;;;;;5094539;28;20697;-59
2022/01/22 05:28:12;;;;;;;14.68;8.68;;;3.30;85.40;;;;;;5094825;28;20261;-59
2022/01/22 05:30:56;;;;;;;13.05;8.10;;;3.20;84.60;;;;;;5093316;28;20196;-59
2022/01/22 05:36:56;;;;;;;15.63;9.23;;;3.20;85.10;;;;;;5094520;28;20196;-59
2022/01/22 05:39:10;;;;;;;10.88;7.60;;;3.50;84.90;;;;;;5094347;28;20195;-61
2022/01/22 05:41:39;;;;;;;13.95;8.27;;;3.50;84.60;;;;;;5094367;28;20200;-60
2022/01/22 05:44:06;;;;;;;13.23;8.10;;;3.40;83.90;;;;;;5093074;28;20224;-56
2022/01/22 05:46:33;;;;;;;12.52;7.80;;;3.30;83.80;;;;;;5094335;28;20716;-61
2022/01/22 05:49:00;;;;;;;14.57;8.10;;;3.10;84.60;;;;;;5094420;28;20620;-59
2022/01/22 05:51:27;;;;;;;13.77;8.95;;;3.10;85.00;;;;;;5094262;28;20287;-59
2022/01/22 05:54:18;;;;;;;10.88;8.00;;;3.20;85.10;;;;;;5094178;28;20288;-59
2022/01/22 05:59:37;;;;;;;16.25;7.35;;;3.20;84.60;;;;;;5092947;28;20661;-60
2022/01/22 06:02:04;;;;;;;13.60;8.60;;;3.30;84.60;;;;;;5093825;28;20235;-58
2022/01/22 06:04:31;;;;;;;10.68;7.90;;;3.20;84.50;;;;;;5093863;28;20745;-59
2022/01/22 06:06:58;;;;;;;12.30;8.25;;;3.20;84.70;;;;;;5094009;28;20242;-59
2022/01/22 06:09:26;;;;;;;12.45;8.32;;;3.30;84.60;;;;;;5093861;28;20202;-58
2022/01/22 06:11:57;;;;;;;11.80;7.95;;;3.40;84.00;;;;;;5093969;28;20719;-59
2022/01/22 06:14:24;;;;;;;13.35;7.85;;;3.30;83.50;;;;;;5092604;28;20207;-58
2022/01/22 06:16:51;;;;;;;11.52;8.10;;;3.20;84.50;;;;;;5093836;28;20232;-59
2022/01/22 06:19:18;;;;;;;11.45;8.50;;;3.30;83.90;;;;;;5093757;28;20196;-59
2022/01/22 06:21:45;;;;;;;14.32;7.88;;;3.20;84.00;;;;;;5093741;28;20200;-60
2022/01/22 06:24:13;;;;;;;11.70;8.07;;;3.20;84.40;;;;;;5093013;28;20326;-56
2022/01/22 06:26:40;;;;;;;12.00;8.90;;;3.00;84.40;;;;;;5093360;28;20242;-59
2022/01/22 06:29:08;;;;;;;13.45;7.82;;;3.00;84.90;;;;;;5092263;28;20676;-61
2022/01/22 06:31:35;;;;;;;10.90;7.68;;;3.00;84.70;;;;;;5093594;28;20216;-59
2022/01/22 06:34:02;;;;;;;14.35;8.15;;;2.90;85.20;;;;;;5093386;28;20299;-58
2022/01/22 06:36:30;;;;;;;12.43;7.75;;;2.90;85.30;;;;;;5093490;28;20207;-59
2022/01/22 06:38:59;;;;;;;17.50;8.20;;;3.00;85.50;;;;;;5093499;28;20215;-57
2022/01/22 06:44:13;;;;;;;12.80;8.38;;;3.10;84.40;;;;;;5091830;28;20728;-60
2022/01/22 06:46:40;;;;;;;18.27;8.48;;;3.10;84.60;;;;;;5093361;28;20210;-60
2022/01/22 06:49:08;;;;;;;13.80;8.95;;;3.00;84.90;;;;;;5093248;28;20212;-55
2022/01/22 06:51:35;;;;;;;11.90;7.90;;;3.00;85.20;;;;;;5093286;28;20206;-60
2022/01/22 06:54:02;;;;;;;11.00;7.30;;;3.10;85.10;;;;;;5093113;28;20218;-60
2022/01/22 06:56:30;;;;;;;12.15;7.53;;;3.20;85.10;;;;;;5093033;28;20210;-58
2022/01/22 06:58:57;;;;;;;14.38;8.30;;;3.30;84.50;;;;;;5091702;28;20308;-60
2022/01/22 07:01:27;;;;;;;13.27;8.25;;;3.30;84.10;;;;;;5093145;28;20208;-60
2022/01/22 07:03:54;;;;;;;18.52;8.45;;;3.30;84.10;;;;;;5092793;28;20706;-57
2022/01/22 07:06:21;;;;;;;11.85;8.00;;;3.20;84.30;;;;;;5093019;28;20211;-58
2022/01/22 07:08:48;;;;;;;12.63;8.32;;;3.00;85.20;;;;;;5093031;28;20210;-57
2022/01/22 07:11:15;;;;;;;13.07;7.55;;;2.80;85.70;;;;;;5092884;28;20211;-56
2022/01/22 07:13:42;;;;;;;13.75;8.20;;;2.90;86.20;;;;;;5091487;28;20675;-58
2022/01/22 07:16:09;;;;;;;16.75;9.13;;;3.00;86.40;;;;;;5093057;28;20549;-59
2022/01/22 07:18:37;;;;;;;13.07;8.32;;;3.10;86.10;;;;;;5092984;28;20199;-60
2022/01/22 07:21:13;;;;;;;12.70;8.10;;;3.10;86.70;;;;;;5092930;28;20294;-59
2022/01/22 07:26:36;;;;;;;15.13;8.98;;;2.80;87.00;;;;;;5030399;28;20723;-55
2022/01/22 07:29:03;;;;;;;14.73;8.52;;;2.70;87.50;;;;;;5075951;28;20692;-58
2022/01/22 07:31:30;;;;;;;13.70;8.70;;;2.60;88.00;;;;;;5092805;28;20216;-56
2022/01/22 07:33:58;;;;;;;14.38;8.18;;;2.60;88.30;;;;;;5092777;28;20298;-56
2022/01/22 07:36:25;;;;;;;13.07;8.32;;;2.60;88.30;;;;;;5094026;28;20295;-55
2022/01/22 07:38:51;;;;;;;16.38;8.35;;;2.50;88.40;;;;;;5096926;28;20223;-60
2022/01/22 07:41:18;;;;;;;16.17;9.30;;;2.60;88.90;;;;;;5096599;28;20235;-60
2022/01/22 07:43:45;;;;;;;15.45;8.52;;;2.70;88.10;;;;;;5095425;28;20283;-55
2022/01/22 07:46:12;;;;;;;17.77;9.27;;;2.70;88.00;;;;;;5096793;28;20295;-58
2022/01/22 07:48:39;;;;;;;17.17;9.63;;;2.60;88.10;;;;;;5096780;28;20287;-59
2022/01/22 07:51:07;;;;;;;14.40;9.68;;;2.60;88.40;;;;;;5096475;28;20206;-59
2022/01/22 07:53:34;;;;;;;16.42;9.88;;;2.60;88.50;;;;;;5096507;28;20202;-59
2022/01/22 07:56:01;;;;;;;17.08;9.30;;;2.70;88.50;;;;;;5096367;28;20287;-60
2022/01/22 07:58:28;;;;;;;16.90;10.52;;;2.70;88.10;;;;;;5096512;28;20204;-59
2022/01/22 08:00:55;;;;;;;17.17;9.38;;;2.70;88.40;;;;;;5095223;28;20208;-59
2022/01/22 08:03:21;;;;;;;20.58;10.32;;;2.70;88.10;;;;;;5096324;28;20333;-60
2022/01/22 08:05:48;;;;;;;16.45;9.05;;;2.60;88.80;;;;;;5096125;28;20256;-59
2022/01/22 08:08:16;;;;;;;23.38;10.05;;;2.50;89.40;;;;;;5096286;28;20200;-60
2022/01/22 08:10:43;;;;;;;19.02;11.52;;;2.40;90.00;;;;;;5096221;28;20210;-59
2022/01/22 08:13:11;;;;;;;18.42;10.27;;;2.40;90.30;;;;;;5096245;28;20673;-59
2022/01/22 08:15:38;;;;;;;20.98;10.95;;;2.50;90.30;;;;;;5094878;28;20200;-59
2022/01/22 08:18:07;;;;;;;24.33;11.30;;;2.40;90.30;;;;;;5096012;28;20200;-56
2022/01/22 08:20:35;;;;;;;20.60;10.75;;;2.30;90.70;;;;;;5096101;28;20204;-60
2022/01/22 08:23:02;;;;;;;17.67;10.38;;;2.20;91.10;;;;;;5096075;28;20214;-59
2022/01/22 08:25:33;;;;;;;19.00;9.70;;;2.10;91.40;;;;;;5095813;28;20239;-57
2022/01/22 08:30:46;;;;;;;20.20;10.07;;;2.10;92.00;;;;;;5063141;28;20200;-60
2022/01/22 08:33:34;;;;;;;18.58;10.50;;;2.10;92.00;;;;;;5095807;28;20215;-58
2022/01/22 08:36:02;;;;;;;20.80;10.52;;;2.00;92.60;;;;;;5095725;28;20211;-59
2022/01/22 08:38:31;;;;;;;19.30;10.38;;;2.00;92.70;;;;;;5095708;28;20563;-60
2022/01/22 08:41:00;;;;;;;20.80;11.00;;;2.10;93.10;;;;;;5095444;28;20196;-60
2022/01/22 08:43:27;;;;;;;24.77;11.70;;;2.10;92.80;;;;;;5095441;28;20228;-59
2022/01/22 08:45:55;;;;;;;21.48;11.57;;;2.10;92.80;;;;;;5094336;28;20236;-59
2022/01/22 08:48:23;;;;;;;24.60;11.85;;;2.10;92.80;;;;;;5094652;28;20204;-59
2022/01/22 08:50:50;;;;;;;19.42;10.40;;;2.10;92.60;;;;;;5095388;28;20219;-59
2022/01/22 08:53:17;;;;;;;18.95;11.02;;;2.20;92.60;;;;;;5095542;28;20538;-59
2022/01/22 08:55:44;;;;;;;21.10;10.65;;;2.10;92.50;;;;;;5095030;28;20222;-56
2022/01/22 08:58:12;;;;;;;25.73;12.70;;;2.20;92.60;;;;;;5095364;28;20291;-59
2022/01/22 09:00:39;;;;;;;20.25;11.20;;;2.20;92.70;;;;;;5093929;28;20222;-60
2022/01/22 09:03:06;;;;;;;22.02;11.60;;;2.30;92.60;;;;;;5095059;28;20272;-59
2022/01/22 09:05:36;;;;;;;23.15;11.60;;;2.20;92.30;;;;;;5095234;28;20254;-59
2022/01/22 09:08:03;;;;;;;21.52;10.45;;;2.30;92.30;;;;;;5095223;28;20217;-61
2022/01/22 09:10:30;;;;;;;19.92;11.10;;;2.30;92.40;;;;;;5094968;28;20614;-58
2022/01/22 09:12:57;;;;;;;25.27;11.77;;;2.30;92.20;;;;;;5094951;28;20228;-58
2022/01/22 09:15:26;;;;;;;22.70;11.32;;;2.40;92.30;;;;;;5093858;28;20582;-59
2022/01/22 09:17:52;;;;;;;21.45;11.63;;;2.40;91.90;;;;;;5094941;28;20674;-60
2022/01/22 09:20:32;;;;;;;18.17;10.60;;;2.30;91.70;;;;;;5095031;28;20208;-57
2022/01/22 09:22:59;;;;;;;22.13;10.45;;;2.10;92.40;;;;;;5094797;28;20662;-59
2022/01/22 09:25:26;;;;;;;21.88;11.38;;;2.10;92.70;;;;;;5094662;28;20243;-60
2022/01/22 09:27:53;;;;;;;26.23;11.30;;;2.10;93.00;;;;;;5094786;28;20216;-59
2022/01/22 09:30:20;;;;;;;21.50;10.80;;;2.10;93.00;;;;;;5093528;28;20627;-59
2022/01/22 09:32:49;;;;;;;22.33;11.55;;;2.20;92.90;;;;;;5094568;28;20210;-60
2022/01/22 09:35:16;;;;;;;18.77;10.73;;;2.30;92.90;;;;;;5094385;28;20214;-59
2022/01/22 09:37:44;;;;;;;22.80;10.88;;;2.30;92.60;;;;;;5094627;28;20196;-60
2022/01/22 09:40:12;;;;;;;21.65;10.57;;;2.30;92.50;;;;;;5094418;28;20208;-60
2022/01/22 09:42:40;;;;;;;19.10;10.60;;;2.30;92.20;;;;;;5094476;28;20268;-59
2022/01/22 09:45:08;;;;;;;15.88;10.50;;;2.40;92.40;;;;;;5093010;28;20718;-59
2022/01/22 09:47:35;;;;;;;22.15;11.75;;;2.40;91.90;;;;;;5094348;28;20546;-62
2022/01/22 09:50:05;;;;;;;24.60;12.18;;;2.40;91.80;;;;;;5094208;28;20294;-59
2022/01/22 09:52:32;;;;;;;18.42;10.93;;;2.60;92.50;;;;;;5094311;28;20196;-61
2022/01/22 09:54:58;;;;;;;21.13;10.90;;;2.70;92.20;;;;;;5094019;28;20200;-60
2022/01/22 09:57:26;;;;;;;19.08;11.18;;;2.80;91.40;;;;;;5094059;28;20210;-58
2022/01/22 09:59:53;;;;;;;19.83;10.38;;;2.80;90.90;;;;;;5092797;28;20295;-60
2022/01/22 10:02:22;;;;;;;16.67;9.95;;;2.90;90.80;;;;;;5094033;28;20239;-59
2022/01/22 10:04:52;;;;;;;22.42;10.00;;;2.90;90.40;;;;;;5093901;28;20228;-59
2022/01/22 10:07:22;;;;;;;17.73;9.95;;;2.80;90.30;;;;;;5094022;28;20212;-59
2022/01/22 10:09:56;;;;;;;21.10;11.00;;;2.70;90.60;;;;;;5093767;28;20647;-56
2022/01/22 10:12:25;;;;;;;18.13;9.80;;;2.80;90.90;;;;;;5093922;28;20206;-59
2022/01/22 10:15:12;;;;;;;16.35;10.63;;;2.90;90.70;;;;;;5092508;28;20211;-59
2022/01/22 10:17:42;;;;;;;21.33;12.35;;;2.90;90.70;;;;;;5093684;28;20798;-60
2022/01/22 10:20:27;;;;;;;16.92;9.70;;;2.80;91.00;;;;;;5093695;28;20679;-57
2022/01/22 10:22:59;;;;;;;16.27;10.48;;;3.00;91.40;;;;;;5093639;28;20218;-59
2022/01/22 10:25:30;;;;;;;15.30;9.48;;;3.10;90.80;;;;;;5093213;28;20246;-59
2022/01/22 10:27:58;;;;;;;19.85;10.10;;;3.10;90.70;;;;;;5093606;28;20208;-60
2022/01/22 10:30:34;;;;;;;19.20;9.45;;;3.30;90.40;;;;;;5092299;28;20208;-59
2022/01/22 10:33:07;;;;;;;17.42;9.68;;;3.30;89.90;;;;;;5093483;28;20200;-60
2022/01/22 10:35:35;;;;;;;14.90;9.10;;;3.40;90.00;;;;;;5093588;28;20200;-59
2022/01/22 10:38:05;;;;;;;15.15;8.73;;;3.40;89.80;;;;;;5093353;28;20204;-60
2022/01/22 10:40:33;;;;;;;18.40;9.43;;;3.50;90.00;;;;;;5093157;28;20200;-57
2022/01/22 10:43:20;;;;;;;15.13;9.20;;;3.50;89.60;;;;;;5093354;28;20224;-59
2022/01/22 10:46:02;;;;;;;14.30;8.55;;;3.50;89.80;;;;;;5091681;28;20253;-60
2022/01/22 10:48:29;;;;;;;15.60;9.57;;;3.50;89.70;;;;;;5093169;28;20204;-59
2022/01/22 10:51:05;;;;;;;14.98;9.18;;;3.60;90.00;;;;;;5093296;28;20204;-58
2022/01/22 10:53:45;;;;;;;17.85;9.35;;;3.70;90.00;;;;;;5093167;28;20287;-59
2022/01/22 10:56:15;;;;;;;17.42;9.40;;;3.70;89.10;;;;;;5093198;28;20249;-59
2022/01/22 10:59:02;;;;;;;22.33;9.13;;;3.60;89.10;;;;;;5091780;28;20196;-56
2022/01/22 11:01:30;;;;;;;14.73;9.55;;;3.40;89.40;;;;;;5093155;28;20231;-59
2022/01/22 11:04:09;;;;;;;16.65;9.30;;;3.40;89.60;;;;;;5092884;28;20235;-59
2022/01/22 11:06:37;;;;;;;18.15;10.05;;;3.20;89.50;;;;;;5093011;28;20599;-60
2022/01/22 11:09:06;;;;;;;16.83;10.68;;;3.10;89.90;;;;;;5093054;28;20199;-60
2022/01/22 11:11:37;;;;;;;23.98;11.10;;;3.10;90.40;;;;;;5092300;28;20226;-58
2022/01/22 11:14:05;;;;;;;17.00;9.75;;;3.30;90.70;;;;;;5091608;28;20204;-59
2022/01/22 11:16:33;;;;;;;21.95;11.07;;;3.50;90.70;;;;;;5092924;28;20214;-59
2022/01/22 11:19:00;;;;;;;24.25;12.15;;;3.40;89.70;;;;;;5092840;28;20202;-59
2022/01/22 11:21:27;;;;;;;16.15;10.35;;;3.40;89.90;;;;;;5092909;28;20200;-59
2022/01/22 11:23:54;;;;;;;23.38;12.35;;;3.30;90.20;;;;;;5092705;28;20210;-59
2022/01/22 11:26:23;;;;;;;20.58;8.77;;;3.40;90.50;;;;;;5092620;28;20242;-57
2022/01/22 11:28:53;;;;;;;21.15;11.60;;;3.60;90.30;;;;;;5091441;28;20298;-60
2022/01/22 11:31:22;;;;;;;15.50;9.80;;;3.70;90.30;;;;;;5092637;28;20206;-61
2022/01/22 11:33:51;;;;;;;15.05;9.00;;;3.50;89.70;;;;;;5092761;28;20287;-58
2022/01/22 11:36:23;;;;;;;15.95;9.60;;;3.40;89.80;;;;;;5092643;28;20680;-60
2022/01/22 11:38:54;;;;;;;14.93;9.85;;;3.40;90.40;;;;;;5092731;28;20204;-59
2022/01/22 11:41:23;;;;;;;16.38;10.05;;;3.40;90.60;;;;;;5092439;28;20207;-60
2022/01/22 11:44:03;;;;;;;16.85;9.45;;;3.40;90.50;;;;;;5091209;28;20220;-58
2022/01/22 11:46:34;;;;;;;16.08;9.43;;;3.50;90.80;;;;;;5092434;28;20701;-58
2022/01/22 11:49:27;;;;;;;15.68;8.75;;;3.60;90.40;;;;;;5092520;28;20292;-61
2022/01/22 11:52:15;;;;;;;13.10;8.70;;;3.70;90.40;;;;;;5068680;28;20566;-60
2022/01/22 11:54:52;;;;;;;16.40;9.45;;;3.80;90.20;;;;;;5092316;28;20690;-60
2022/01/22 11:57:19;;;;;;;12.35;7.82;;;4.00;90.10;;;;;;5092202;28;20275;-60
2022/01/22 11:59:47;;;;;;;13.77;8.15;;;4.20;89.90;;;;;;5091223;28;20200;-59
2022/01/22 12:02:15;;;;;;;14.02;8.10;;;4.40;89.00;;;;;;5092323;28;20210;-61
2022/01/22 12:04:52;;;;;;;14.07;8.45;;;4.50;88.40;;;;;;5092386;28;20332;-60
2022/01/22 12:07:21;;;;;;;13.18;7.85;;;4.60;87.70;;;;;;5092461;28;20239;-59
2022/01/22 12:15:49;;;;;;;13.60;8.45;;;4.70;87.60;;;;;;5089070;28;20203;-59
2022/01/22 12:18:19;;;;;;;17.42;8.73;;;4.70;88.20;;;;;;5090180;28;20196;-59
2022/01/22 12:23:50;;;;;;;11.57;6.78;;;4.70;87.70;;;;;;5090268;28;20562;-60
2022/01/22 12:27:01;;;;;;;10.63;6.82;;;4.80;87.10;;;;;;5090096;28;20200;-60
2022/01/22 12:29:40;;;;;;;16.52;8.27;;;4.90;87.10;;;;;;5088851;28;20200;-61
2022/01/22 12:35:14;;;;;;;11.65;6.63;;;5.10;86.40;;;;;;5084657;28;20196;-60
2022/01/22 12:37:45;;;;;;;10.25;6.28;;;5.00;86.00;;;;;;5090002;28;20590;-61
2022/01/22 12:40:14;;;;;;;11.60;6.68;;;5.10;85.60;;;;;;5089877;28;20208;-59
2022/01/22 12:43:02;;;;;;;9.40;5.80;;;5.00;85.50;;;;;;5089627;28;20232;-61
2022/01/22 12:45:30;;;;;;;10.57;6.00;;;5.10;85.90;;;;;;5088359;28;20204;-61
2022/01/22 12:47:57;;;;;;;9.93;5.60;;;5.10;85.40;;;;;;5089724;28;20295;-59
2022/01/22 12:50:31;;;;;;;7.20;5.45;;;5.20;85.00;;;;;;5089687;28;20632;-60
2022/01/22 12:53:03;;;;;;;8.57;6.13;;;5.20;85.20;;;;;;5089684;28;20200;-59
2022/01/22 12:56:02;;;;;;;12.88;6.03;;;5.30;85.30;;;;;;5089374;28;20240;-60
2022/01/22 12:58:30;;;;;;;10.43;6.13;;;5.40;85.30;;;;;;5089652;28;20583;-60
2022/01/22 13:01:27;;;;;;;9.70;5.90;;;5.20;84.10;;;;;;5087920;28;20596;-60
2022/01/22 13:03:56;;;;;;;8.98;6.18;;;5.30;85.00;;;;;;5054409;28;20207;-59
2022/01/22 13:06:26;;;;;;;11.48;7.03;;;5.20;85.00;;;;;;5089327;28;20669;-59
2022/01/22 13:08:56;;;;;;;9.73;5.75;;;5.20;84.80;;;;;;5089362;28;20211;-59
2022/01/22 13:11:26;;;;;;;7.55;5.70;;;5.10;83.80;;;;;;5089066;28;20232;-60
2022/01/22 13:13:54;;;;;;;8.15;4.78;;;5.10;84.40;;;;;;5088010;28;20366;-59
2022/01/22 13:16:23;;;;;;;8.02;5.57;;;5.10;84.00;;;;;;5089141;28;20207;-59
2022/01/22 13:18:56;;;;;;;10.70;6.25;;;5.10;84.30;;;;;;5089064;28;20216;-60
2022/01/22 13:21:24;;;;;;;8.90;6.20;;;5.10;84.30;;;;;;5089064;28;20243;-60
2022/01/22 13:24:04;;;;;;;8.57;5.53;;;5.10;84.20;;;;;;5076524;28;20668;-60
2022/01/22 13:26:50;;;;;;;8.27;5.45;;;4.90;84.50;;;;;;5075448;28;20287;-59
2022/01/22 13:29:19;;;;;;;6.72;5.45;;;4.80;85.00;;;;;;5073933;28;20585;-60
2022/01/22 13:32:01;;;;;;;7.65;5.32;;;4.80;84.90;;;;;;5075363;28;20295;-60
2022/01/22 13:34:39;;;;;;;7.90;6.13;;;4.90;85.20;;;;;;5075381;28;20236;-60
2022/01/22 13:37:54;;;;;;;7.65;6.13;;;4.90;84.70;;;;;;5075345;28;20561;-60
2022/01/22 13:40:37;;;;;;;11.85;5.90;;;4.90;84.80;;;;;;5075172;28;20205;-58
2022/01/22 13:48:38;;;;;;;10.45;6.10;;;5.30;84.00;;;;;;5075272;28;20664;-62
2022/01/22 13:51:07;;;;;;;9.30;6.00;;;5.10;83.90;;;;;;5075069;28;20671;-61
2022/01/22 13:53:37;;;;;;;7.93;5.65;;;5.00;84.80;;;;;;5074986;28;20201;-61
2022/01/22 13:56:07;;;;;;;9.85;7.40;;;5.10;84.90;;;;;;5074759;28;20210;-60
2022/01/22 13:58:34;;;;;;;8.95;6.45;;;5.20;84.90;;;;;;5074741;28;20204;-60
2022/01/22 14:01:06;;;;;;;12.90;7.00;;;5.30;84.00;;;;;;5074235;28;20196;-58
2022/01/22 14:03:39;;;;;;;9.82;6.90;;;5.30;83.80;;;;;;5074898;28;20211;-61
2022/01/22 14:06:08;;;;;;;12.10;7.47;;;5.10;84.50;;;;;;5074773;28;20299;-59
2022/01/22 14:08:36;;;;;;;10.02;7.15;;;5.10;84.00;;;;;;5074718;28;20201;-60
2022/01/22 14:11:05;;;;;;;16.52;7.85;;;5.10;84.10;;;;;;5074376;28;20619;-59
2022/01/22 14:13:32;;;;;;;10.55;6.70;;;4.90;84.50;;;;;;5074691;28;20357;-63
2022/01/22 14:16:11;;;;;;;10.82;7.30;;;4.90;85.40;;;;;;5073485;28;20295;-57
2022/01/22 14:18:42;;;;;;;13.93;8.20;;;5.00;84.60;;;;;;5074616;28;20219;-62